EGHH/BOH METAR and TAF weather

Enter ICAO airport designator
Station Type Date Time Source
EGHH METAR 2019/02/22 19:20 UTC NOAA

EGHH 221920Z 11005KT 4000 BR OVC003 06/05 Q1034


Station Type Date Time Source
EGHH Decoded METAR 2019/02/22 19:20 UTC NOAA

Bournemouth Airport, United Kingdom (EGHH) 50-47N 001-50W 0M
Feb 22, 2019 - 02:20 PM EST / 2019.02.22 1920 UTC
Wind: from the ESE (110 degrees) at 6 MPH (5 KT):0
Visibility: 2 mile(s):0
Sky conditions: overcast
Weather: mist
Temperature: 42 F (6 C)
Dew Point: 41 F (5 C)
Relative Humidity: 93%
Pressure (altimeter): 30.53 in. Hg (1034 hPa)
ob: EGHH 221920Z 11005KT 4000 BR OVC003 06/05 Q1034
cycle: 19

Station Type Date Time Source
EGHH TAF 2013/12/01 21:21 UTC NOAA

TAF TAF EGHH 010016Z 3021/0106 CNL


Example: see airport list